Home   Weather   USA   Sedona   Past weeks
Flag for USA

Past Weather in Sedona, Arizona, USA — Yesterday and Last 2 Weeks

Currently: 81 °F. Sunny. (Weather station: Sedona Airport, USA). See more current weather

Past Weather in Sedona — Graph

°F

Sedona Temperature Yesterday

Maximum temperature yesterday: 99 °F (at 3:35 pm)
Minimum temperature yesterday: 73 °F (at 2:35 am)
Average temperature yesterday: 84 °F

High & Low Weather Summary for the Past Weeks

 TemperatureHumidityPressure
High99 °F (Aug 3, 3:35 pm)100% (Jul 23, 3:55 pm)30.32 "Hg (Jul 23, 3:55 pm)
Low61 °F (Jul 26, 5:35 am)14% (Aug 3, 2:15 pm)30.08 "Hg (Jul 21, 5:55 pm)
Average77 °F54%30.20 "Hg
* Reported Jul 20 6:15 am — Aug 4 6:55 am, Sedona. Weather by CustomWeather, © 2021

Note: Actual official high and low records may vary slightly from our data, if they occured in-between our weather recording intervals... More about our weather records

Sedona Weather History for the Previous 24 Hours

Scroll right to see more
 ConditionsComfort  
Time TempWeatherWind HumidityBarometerVisibility
6:55 am
Wed, Aug 4
77 °FSunny.12 mph28%30.17 "Hg10 mi
6:35 am77 °FSunny.12 mph28%30.16 "Hg10 mi
5:55 am77 °FSunny.12 mph26%30.15 "Hg10 mi
5:35 am75 °FClear.13 mph27%30.15 "Hg10 mi
5:15 am77 °FClear.13 mph26%30.15 "Hg10 mi
4:55 am77 °FClear.13 mph24%30.14 "Hg10 mi
4:35 am77 °FClear.13 mph24%30.14 "Hg10 mi
3:55 am77 °FClear.14 mph24%30.14 "Hg10 mi
3:35 am77 °FClear.14 mph24%30.13 "Hg10 mi
3:15 am79 °FClear.13 mph21%30.13 "Hg10 mi
2:55 am77 °FClear.16 mph24%30.13 "Hg10 mi
2:35 am77 °FClear.17 mph24%30.13 "Hg10 mi
2:15 am79 °FClear.16 mph21%30.14 "Hg10 mi
1:55 am79 °FClear.16 mph23%30.13 "Hg10 mi
1:35 am79 °FClear.16 mph23%30.14 "Hg10 mi
1:15 am81 °FClear.10 mph20%30.14 "Hg10 mi
12:55 am79 °FClear.12 mph21%30.14 "Hg10 mi
12:35 am79 °FClear.17 mph24%30.13 "Hg10 mi
12:15 am79 °FClear.14 mph23%30.13 "Hg10 mi
11:55 pm
Tue, Aug 3
79 °FClear.14 mph24%30.13 "Hg10 mi
11:35 pm81 °FClear.16 mph24%30.13 "Hg10 mi
11:15 pm81 °FClear.15 mph24%30.13 "Hg10 mi
10:55 pm81 °FClear.16 mph26%30.13 "Hg10 mi
10:35 pm82 °FClear.13 mph25%30.13 "Hg10 mi
10:15 pm82 °FClear.12 mph25%30.13 "Hg10 mi
9:55 pm84 °FClear.10 mph23%30.13 "Hg10 mi
9:35 pm84 °FClear.12 mph23%30.13 "Hg10 mi
9:15 pm84 °FClear.10 mph23%30.12 "Hg10 mi
8:55 pm84 °FClear.7 mph23%30.12 "Hg10 mi
8:35 pm88 °FClear.9 mph21%30.11 "Hg10 mi
8:15 pm88 °FClear.9 mph21%30.10 "Hg10 mi
7:55 pm90 °FClear.10 mph18%30.10 "Hg10 mi
7:15 pm90 °FSunny.10 mph18%30.09 "Hg10 mi
6:55 pm91 °FSunny.14 mph17%30.08 "Hg10 mi
6:35 pm93 °FSunny.10 mph16%30.08 "Hg10 mi
6:15 pm95 °FSunny.16 mph15%30.08 "Hg10 mi
5:55 pm95 °FSunny.10 mph16%30.08 "Hg10 mi
4:55 pm97 °FSunny.15 mph16%30.10 "Hg10 mi
4:15 pm97 °FSunny.9 mph16%30.10 "Hg10 mi
3:55 pm97 °FSunny.7 mph16%30.11 "Hg10 mi
3:35 pm99 °FSunny.12 mph14%30.11 "Hg10 mi
2:55 pm97 °FSunny.10 mph16%30.14 "Hg10 mi
2:35 pm97 °FSunny.16 mph14%30.14 "Hg10 mi
2:15 pm97 °FSunny.9 mph14%30.15 "Hg10 mi
1:55 pm97 °FSunny.No wind18%30.16 "Hg10 mi
1:35 pm97 °FSunny.5 mph17%30.16 "Hg10 mi
1:15 pm97 °FSunny.6 mph19%30.17 "Hg10 mi
12:55 pm97 °FSunny.7 mph19%30.18 "Hg10 mi
12:35 pm93 °FSunny.6 mph21%30.19 "Hg10 mi
11:55 am91 °FSunny.9 mph24%30.21 "Hg10 mi
11:35 am91 °FSunny.7 mph24%30.21 "Hg10 mi
10:55 am88 °FSunny.No wind25%30.22 "Hg10 mi
10:35 am91 °FSunny.5 mph24%30.22 "Hg10 mi
10:15 am88 °FSunny.6 mph27%30.23 "Hg10 mi
9:55 am86 °FSunny.No wind27%30.23 "Hg10 mi
9:35 am84 °FSunny.No wind31%30.23 "Hg10 mi
9:15 am82 °FSunny.5 mph32%30.24 "Hg10 mi
8:55 am84 °FSunny.No wind31%30.24 "Hg10 mi
8:35 am81 °FSunny.No wind34%30.25 "Hg10 mi
8:15 am81 °FSunny.3 mph34%30.24 "Hg10 mi
Weather by CustomWeather, © 2021

See weather overview